sensor_id;sensor_type;location;lat;lon;timestamp;P1;durP1;ratioP1;P2;durP2;ratioP2
52368;SDS011;38298;50.346;3.526;2022-09-27T00:00:58;3.17;;;1.00;;
52368;SDS011;38298;50.346;3.526;2022-09-27T00:03:24;5.88;;;1.00;;
52368;SDS011;38298;50.346;3.526;2022-09-27T00:05:59;10.20;;;0.98;;
52368;SDS011;38298;50.346;3.526;2022-09-27T00:08:26;3.78;;;1.25;;
52368;SDS011;38298;50.346;3.526;2022-09-27T00:11:02;5.78;;;0.95;;
52368;SDS011;38298;50.346;3.526;2022-09-27T00:13:29;2.15;;;0.90;;
52368;SDS011;38298;50.346;3.526;2022-09-27T00:15:59;1.48;;;1.10;;
52368;SDS011;38298;50.346;3.526;2022-09-27T00:18:25;7.20;;;1.00;;
52368;SDS011;38298;50.346;3.526;2022-09-27T00:20:51;4.93;;;0.85;;
52368;SDS011;38298;50.346;3.526;2022-09-27T00:23:18;3.17;;;1.17;;
52368;SDS011;38298;50.346;3.526;2022-09-27T00:25:54;3.10;;;1.10;;
52368;SDS011;38298;50.346;3.526;2022-09-27T00:28:20;4.28;;;0.90;;
52368;SDS011;38298;50.346;3.526;2022-09-27T00:30:46;7.70;;;1.10;;
52368;SDS011;38298;50.346;3.526;2022-09-27T00:33:12;5.50;;;1.38;;
52368;SDS011;38298;50.346;3.526;2022-09-27T00:35:38;5.35;;;1.08;;
52368;SDS011;38298;50.346;3.526;2022-09-27T00:38:04;2.95;;;0.90;;
52368;SDS011;38298;50.346;3.526;2022-09-27T00:40:31;3.65;;;1.10;;
52368;SDS011;38298;50.346;3.526;2022-09-27T00:42:57;4.47;;;0.90;;
52368;SDS011;38298;50.346;3.526;2022-09-27T00:45:23;4.03;;;1.00;;
52368;SDS011;38298;50.346;3.526;2022-09-27T00:47:55;1.33;;;0.90;;
52368;SDS011;38298;50.346;3.526;2022-09-27T00:50:36;1.63;;;0.80;;
52368;SDS011;38298;50.346;3.526;2022-09-27T00:55:37;4.65;;;1.20;;
52368;SDS011;38298;50.346;3.526;2022-09-27T00:58:04;2.78;;;0.85;;
52368;SDS011;38298;50.346;3.526;2022-09-27T01:00:30;3.35;;;1.30;;
52368;SDS011;38298;50.346;3.526;2022-09-27T01:02:57;1.65;;;0.90;;
52368;SDS011;38298;50.346;3.526;2022-09-27T01:05:25;1.52;;;0.80;;
52368;SDS011;38298;50.346;3.526;2022-09-27T01:07:51;5.22;;;1.05;;
52368;SDS011;38298;50.346;3.526;2022-09-27T01:10:20;2.20;;;1.02;;
52368;SDS011;38298;50.346;3.526;2022-09-27T01:12:56;4.93;;;0.90;;
52368;SDS011;38298;50.346;3.526;2022-09-27T01:15:33;1.85;;;1.00;;
52368;SDS011;38298;50.346;3.526;2022-09-27T01:28:46;0.65;;;0.60;;
52368;SDS011;38298;50.346;3.526;2022-09-27T01:34:11;1.73;;;0.70;;
52368;SDS011;38298;50.346;3.526;2022-09-27T01:41:47;2.92;;;0.70;;
52368;SDS011;38298;50.346;3.526;2022-09-27T01:47:15;1.48;;;0.88;;
52368;SDS011;38298;50.346;3.526;2022-09-27T01:53:29;9.25;;;0.90;;
52368;SDS011;38298;50.346;3.526;2022-09-27T01:55:23;2.85;;;0.75;;
52368;SDS011;38298;50.346;3.526;2022-09-27T01:57:54;5.78;;;1.20;;
52368;SDS011;38298;50.346;3.526;2022-09-27T02:00:22;3.30;;;1.20;;
52368;SDS011;38298;50.346;3.526;2022-09-27T02:05:14;4.15;;;1.90;;
52368;SDS011;38298;50.346;3.526;2022-09-27T02:07:50;3.97;;;1.30;;
52368;SDS011;38298;50.346;3.526;2022-09-27T02:10:18;1.67;;;1.00;;
52368;SDS011;38298;50.346;3.526;2022-09-27T02:13:09;2.88;;;1.30;;
52368;SDS011;38298;50.346;3.526;2022-09-27T02:15:40;1.75;;;0.95;;
52368;SDS011;38298;50.346;3.526;2022-09-27T02:18:34;4.43;;;1.23;;
52368;SDS011;38298;50.346;3.526;2022-09-27T02:20:59;3.95;;;1.20;;
52368;SDS011;38298;50.346;3.526;2022-09-27T02:23:32;5.47;;;1.98;;
52368;SDS011;38298;50.346;3.526;2022-09-27T02:26:09;3.03;;;1.33;;
52368;SDS011;38298;50.346;3.526;2022-09-27T02:28:38;2.35;;;1.23;;
52368;SDS011;38298;50.346;3.526;2022-09-27T02:31:05;2.58;;;1.20;;
52368;SDS011;38298;50.346;3.526;2022-09-27T02:33:33;2.45;;;1.48;;
52368;SDS011;38298;50.346;3.526;2022-09-27T02:36:01;4.00;;;1.65;;
52368;SDS011;38298;50.346;3.526;2022-09-27T02:38:27;5.05;;;1.98;;
52368;SDS011;38298;50.346;3.526;2022-09-27T02:40:53;6.63;;;2.03;;
52368;SDS011;38298;50.346;3.526;2022-09-27T02:43:19;5.18;;;1.77;;
52368;SDS011;38298;50.346;3.526;2022-09-27T02:48:14;3.90;;;1.80;;
52368;SDS011;38298;50.346;3.526;2022-09-27T02:53:30;4.85;;;1.85;;
52368;SDS011;38298;50.346;3.526;2022-09-27T02:56:00;4.85;;;2.20;;
52368;SDS011;38298;50.346;3.526;2022-09-27T03:03:54;5.75;;;2.00;;
52368;SDS011;38298;50.346;3.526;2022-09-27T03:06:23;9.05;;;2.17;;
52368;SDS011;38298;50.346;3.526;2022-09-27T03:08:50;5.22;;;2.05;;
52368;SDS011;38298;50.346;3.526;2022-09-27T03:11:16;10.82;;;2.10;;
52368;SDS011;38298;50.346;3.526;2022-09-27T03:13:42;5.45;;;1.67;;
52368;SDS011;38298;50.346;3.526;2022-09-27T03:16:09;4.47;;;2.00;;
52368;SDS011;38298;50.346;3.526;2022-09-27T03:18:35;9.40;;;2.00;;
52368;SDS011;38298;50.346;3.526;2022-09-27T03:21:01;8.13;;;1.88;;
52368;SDS011;38298;50.346;3.526;2022-09-27T03:23:27;7.15;;;2.25;;
52368;SDS011;38298;50.346;3.526;2022-09-27T03:25:54;8.38;;;1.90;;
52368;SDS011;38298;50.346;3.526;2022-09-27T03:28:20;7.97;;;2.10;;
52368;SDS011;38298;50.346;3.526;2022-09-27T03:30:46;8.85;;;2.10;;
52368;SDS011;38298;50.346;3.526;2022-09-27T03:33:12;5.20;;;1.88;;
52368;SDS011;38298;50.346;3.526;2022-09-27T03:35:38;6.88;;;1.92;;
52368;SDS011;38298;50.346;3.526;2022-09-27T03:38:05;14.60;;;2.47;;
52368;SDS011;38298;50.346;3.526;2022-09-27T03:40:31;10.57;;;2.55;;
52368;SDS011;38298;50.346;3.526;2022-09-27T03:42:57;4.88;;;2.10;;
52368;SDS011;38298;50.346;3.526;2022-09-27T03:45:23;7.15;;;2.10;;
52368;SDS011;38298;50.346;3.526;2022-09-27T03:47:49;8.43;;;2.22;;
52368;SDS011;38298;50.346;3.526;2022-09-27T03:50:16;3.70;;;1.60;;
52368;SDS011;38298;50.346;3.526;2022-09-27T03:52:42;4.60;;;1.63;;
52368;SDS011;38298;50.346;3.526;2022-09-27T03:55:09;5.05;;;1.85;;
52368;SDS011;38298;50.346;3.526;2022-09-27T03:57:35;4.28;;;1.58;;
52368;SDS011;38298;50.346;3.526;2022-09-27T04:00:01;4.50;;;1.35;;
52368;SDS011;38298;50.346;3.526;2022-09-27T04:02:27;2.08;;;1.20;;
52368;SDS011;38298;50.346;3.526;2022-09-27T04:04:53;5.05;;;1.17;;
52368;SDS011;38298;50.346;3.526;2022-09-27T04:07:19;5.45;;;1.30;;
52368;SDS011;38298;50.346;3.526;2022-09-27T04:09:45;11.45;;;1.30;;
52368;SDS011;38298;50.346;3.526;2022-09-27T04:12:11;3.75;;;1.05;;
52368;SDS011;38298;50.346;3.526;2022-09-27T04:14:37;3.92;;;0.93;;
52368;SDS011;38298;50.346;3.526;2022-09-27T04:17:03;1.35;;;0.90;;
